createdAt,value
2022-11-06T00:01:26.113Z,4.80
2022-11-06T00:04:15.010Z,4.70
2022-11-06T00:06:43.240Z,4.70
2022-11-06T00:09:13.288Z,4.70
2022-11-06T00:11:41.987Z,4.70
2022-11-06T00:14:11.909Z,4.60
2022-11-06T00:16:40.565Z,4.60
2022-11-06T00:19:08.400Z,4.60
2022-11-06T00:21:36.465Z,4.50
2022-11-06T00:24:05.519Z,4.50
2022-11-06T00:26:34.122Z,4.50
2022-11-06T00:29:05.255Z,4.50
2022-11-06T00:31:35.957Z,4.50
2022-11-06T00:34:06.436Z,4.60
2022-11-06T00:36:34.142Z,4.40
2022-11-06T00:39:01.487Z,4.50
2022-11-06T00:41:39.908Z,4.40
2022-11-06T00:44:12.079Z,4.40
2022-11-06T00:46:42.152Z,4.40
2022-11-06T00:49:09.485Z,4.40
2022-11-06T00:51:38.085Z,4.50
2022-11-06T00:54:07.873Z,4.50
2022-11-06T00:56:36.922Z,4.60
2022-11-06T00:59:06.894Z,4.70
2022-11-06T01:01:37.369Z,4.50
2022-11-06T01:04:14.196Z,4.80
2022-11-06T01:06:45.366Z,4.70
2022-11-06T01:09:15.350Z,4.70
2022-11-06T01:12:11.928Z,4.60
2022-11-06T01:14:35.079Z,4.60
2022-11-06T01:17:02.609Z,4.60
2022-11-06T01:19:29.783Z,4.60
2022-11-06T01:21:57.262Z,4.50
2022-11-06T01:24:27.879Z,4.50
2022-11-06T01:29:44.291Z,4.50
2022-11-06T01:32:11.995Z,4.40
2022-11-06T01:34:39.148Z,4.40
2022-11-06T01:37:09.210Z,4.40
2022-11-06T01:39:40.246Z,4.40
2022-11-06T01:42:07.808Z,4.40
2022-11-06T01:44:41.063Z,4.40
2022-11-06T01:47:40.769Z,4.30
2022-11-06T01:50:14.190Z,4.30
2022-11-06T01:52:42.476Z,4.20
2022-11-06T01:55:21.615Z,4.40
2022-11-06T01:57:49.276Z,4.60
2022-11-06T02:00:16.735Z,4.20
2022-11-06T02:02:44.367Z,4.10
2022-11-06T02:05:11.874Z,4.10
2022-11-06T02:07:40.956Z,4.20
2022-11-06T02:10:11.039Z,4.10
2022-11-06T02:12:51.839Z,3.90
2022-11-06T02:15:54.843Z,4.00
2022-11-06T02:18:22.283Z,4.00
2022-11-06T02:21:08.245Z,4.00
2022-11-06T02:24:14.041Z,4.00
2022-11-06T02:27:07.102Z,3.90
2022-11-06T02:30:04.449Z,3.90
2022-11-06T02:32:37.398Z,4.00
2022-11-06T02:35:17.507Z,4.10
2022-11-06T02:37:47.109Z,4.10
2022-11-06T02:40:16.502Z,4.20
2022-11-06T02:42:47.913Z,4.20
2022-11-06T02:45:18.592Z,4.50
2022-11-06T02:47:49.445Z,4.20
2022-11-06T02:50:25.663Z,4.20
2022-11-06T02:53:00.753Z,4.20
2022-11-06T02:55:31.991Z,4.30
2022-11-06T02:58:05.144Z,4.30
2022-11-06T03:03:34.268Z,4.20
2022-11-06T03:06:15.750Z,4.30
2022-11-06T03:08:54.251Z,4.20
2022-11-06T03:11:27.183Z,4.20
2022-11-06T03:14:12.856Z,4.20
2022-11-06T03:16:49.437Z,4.10
2022-11-06T03:19:38.605Z,4.10
2022-11-06T03:22:24.756Z,4.10
2022-11-06T03:24:59.018Z,4.10
2022-11-06T03:27:38.383Z,4.20
2022-11-06T03:30:13.835Z,4.20
2022-11-06T03:32:46.816Z,4.20
2022-11-06T03:35:21.889Z,4.20
2022-11-06T03:38:15.349Z,4.10
2022-11-06T03:40:49.748Z,4.10
2022-11-06T03:43:22.877Z,4.20
2022-11-06T03:45:52.723Z,4.10
2022-11-06T03:48:42.353Z,4.10
2022-11-06T03:51:17.881Z,4.10
2022-11-06T03:53:50.975Z,4.00
2022-11-06T03:56:35.702Z,4.00
2022-11-06T03:59:05.956Z,4.00
2022-11-06T04:01:37.306Z,4.00
2022-11-06T04:04:11.252Z,4.00
2022-11-06T04:06:45.451Z,3.90
2022-11-06T04:09:18.372Z,3.90
2022-11-06T04:11:47.056Z,3.90
2022-11-06T04:14:16.653Z,3.80
2022-11-06T04:16:54.152Z,3.80
2022-11-06T04:19:23.114Z,3.80
2022-11-06T04:21:56.059Z,3.80
2022-11-06T04:24:42.021Z,3.80
2022-11-06T04:27:15.631Z,3.90
2022-11-06T04:29:50.869Z,3.90
2022-11-06T04:32:34.736Z,4.10
2022-11-06T04:35:13.957Z,4.00
2022-11-06T04:37:59.455Z,4.00
2022-11-06T04:40:37.150Z,4.00
2022-11-06T04:43:22.889Z,3.90
2022-11-06T04:45:54.257Z,3.90
2022-11-06T04:48:23.175Z,3.90
2022-11-06T04:50:54.726Z,3.90
2022-11-06T04:53:24.038Z,3.90
2022-11-06T04:56:02.108Z,3.80
2022-11-06T04:58:29.285Z,3.80
2022-11-06T05:00:56.626Z,3.80
2022-11-06T05:03:26.322Z,3.80
2022-11-06T05:05:53.922Z,3.80
2022-11-06T05:08:21.193Z,3.80
2022-11-06T05:10:51.049Z,3.80
2022-11-06T05:13:18.390Z,3.70
2022-11-06T05:15:45.726Z,3.70
2022-11-06T05:18:15.207Z,3.70
2022-11-06T05:20:45.693Z,3.70
2022-11-06T05:23:14.944Z,3.60
2022-11-06T05:25:43.107Z,3.70
2022-11-06T05:28:10.668Z,3.70
2022-11-06T05:30:38.207Z,3.80
2022-11-06T05:33:05.282Z,3.80
2022-11-06T05:35:33.084Z,3.80
2022-11-06T05:38:03.474Z,3.70
2022-11-06T05:40:30.935Z,3.80
2022-11-06T05:43:00.584Z,3.80
2022-11-06T05:45:27.983Z,3.80
2022-11-06T05:47:55.016Z,3.80
2022-11-06T05:50:22.878Z,4.00
2022-11-06T05:52:49.994Z,3.80
2022-11-06T05:55:17.732Z,3.80
2022-11-06T05:57:45.206Z,3.80
2022-11-06T06:00:13.789Z,3.90
2022-11-06T06:02:41.054Z,3.90
2022-11-06T06:05:09.431Z,3.90
2022-11-06T06:07:39.111Z,4.10
2022-11-06T06:10:09.253Z,4.50
2022-11-06T06:12:37.655Z,5.10
2022-11-06T06:15:06.083Z,5.60
2022-11-06T06:17:33.266Z,6.10
2022-11-06T06:20:00.878Z,6.70
2022-11-06T06:22:28.083Z,7.00
2022-11-06T06:24:55.679Z,7.00
2022-11-06T06:27:23.036Z,6.90
2022-11-06T06:29:50.371Z,6.90
2022-11-06T06:32:19.809Z,7.20
2022-11-06T06:34:47.259Z,8.20
2022-11-06T06:37:20.195Z,9.60
2022-11-06T06:39:47.961Z,10.00
2022-11-06T06:42:15.262Z,10.10
2022-11-06T06:44:43.478Z,9.80
2022-11-06T06:47:10.964Z,9.90
2022-11-06T06:49:38.501Z,10.60
2022-11-06T06:52:05.905Z,12.40
2022-11-06T06:54:33.270Z,14.90
2022-11-06T06:57:00.426Z,17.60
2022-11-06T06:59:31.337Z,20.10
2022-11-06T07:01:58.443Z,22.10
2022-11-06T07:04:26.268Z,23.10
2022-11-06T07:06:54.478Z,23.90
2022-11-06T07:09:22.645Z,24.40
2022-11-06T07:11:50.088Z,23.80
2022-11-06T07:14:17.370Z,22.30
2022-11-06T07:16:47.310Z,20.80
2022-11-06T07:19:17.744Z,19.90
2022-11-06T07:21:45.005Z,19.90
2022-11-06T07:24:12.334Z,19.80
2022-11-06T07:26:39.555Z,19.60
2022-11-06T07:29:07.034Z,19.70
2022-11-06T07:31:34.091Z,21.00
2022-11-06T07:34:01.623Z,22.90
2022-11-06T07:36:28.742Z,24.80
2022-11-06T07:38:56.093Z,26.90
2022-11-06T07:41:23.418Z,29.10
2022-11-06T07:43:50.698Z,31.00
2022-11-06T07:46:17.808Z,32.60
2022-11-06T07:48:47.566Z,34.00
2022-11-06T07:51:14.700Z,35.00
2022-11-06T07:53:42.089Z,35.60
2022-11-06T07:56:09.405Z,36.20
2022-11-06T07:58:37.329Z,36.80
2022-11-06T08:01:04.586Z,37.60
2022-11-06T08:03:34.352Z,37.90
2022-11-06T08:06:04.135Z,38.10
2022-11-06T08:08:31.706Z,38.60
2022-11-06T08:11:07.066Z,39.10
2022-11-06T08:13:35.140Z,39.30
2022-11-06T08:16:10.688Z,39.70
2022-11-06T08:18:38.197Z,39.80
2022-11-06T08:21:06.184Z,39.80
2022-11-06T08:23:34.518Z,39.10
2022-11-06T08:26:03.607Z,39.50
2022-11-06T08:28:31.275Z,39.70
2022-11-06T08:30:58.370Z,40.10
2022-11-06T08:33:25.864Z,40.60
2022-11-06T08:35:53.468Z,40.70
2022-11-06T08:38:20.806Z,41.20
2022-11-06T08:40:53.252Z,41.80
2022-11-06T08:43:24.087Z,42.30
2022-11-06T08:45:51.300Z,42.50
2022-11-06T08:48:18.761Z,42.50
2022-11-06T08:50:46.113Z,42.60
2022-11-06T08:53:13.915Z,42.70
2022-11-06T08:55:41.282Z,42.60
2022-11-06T08:58:08.922Z,41.80
2022-11-06T09:00:38.700Z,41.30
2022-11-06T09:03:09.792Z,40.80
2022-11-06T09:05:39.902Z,40.80
2022-11-06T09:08:08.818Z,41.00
2022-11-06T09:10:40.345Z,41.40
2022-11-06T09:13:08.438Z,41.60
2022-11-06T09:15:40.221Z,41.80
2022-11-06T09:18:07.908Z,41.80
2022-11-06T09:20:35.848Z,41.90
2022-11-06T09:23:07.562Z,41.60
2022-11-06T09:25:34.568Z,42.00
2022-11-06T09:28:02.650Z,42.10
2022-11-06T09:30:32.907Z,42.30
2022-11-06T09:33:03.626Z,42.20
2022-11-06T09:35:33.038Z,41.20
2022-11-06T09:38:01.961Z,41.10
2022-11-06T09:40:33.238Z,40.80
2022-11-06T09:43:50.215Z,40.70
2022-11-06T09:46:38.853Z,40.20
2022-11-06T09:49:25.242Z,40.60
2022-11-06T09:52:18.472Z,40.80
2022-11-06T09:54:56.264Z,40.40
2022-11-06T09:57:39.919Z,40.50
2022-11-06T10:00:12.114Z,41.00
2022-11-06T10:02:54.819Z,41.70
2022-11-06T10:05:36.941Z,41.40
2022-11-06T10:08:05.841Z,41.10
2022-11-06T10:10:39.850Z,41.50
2022-11-06T10:13:26.603Z,41.90
2022-11-06T10:16:06.162Z,42.10
2022-11-06T10:18:54.129Z,42.00
2022-11-06T10:21:29.184Z,41.90
2022-11-06T10:24:03.130Z,41.90
2022-11-06T10:26:39.376Z,41.90
2022-11-06T10:29:20.389Z,41.90
2022-11-06T10:32:06.452Z,41.30
2022-11-06T10:34:44.177Z,40.60
2022-11-06T10:37:24.644Z,39.90
2022-11-06T10:39:53.716Z,39.70
2022-11-06T10:42:24.772Z,39.40
2022-11-06T10:44:51.794Z,39.40
2022-11-06T10:47:26.473Z,39.90
2022-11-06T10:49:55.229Z,39.90
2022-11-06T10:53:05.589Z,39.80
2022-11-06T10:55:46.073Z,39.40
2022-11-06T10:58:21.084Z,38.40
2022-11-06T11:00:48.493Z,37.70
2022-11-06T11:03:35.363Z,37.70
2022-11-06T11:06:03.237Z,38.30
2022-11-06T11:08:35.188Z,38.30
2022-11-06T11:11:05.203Z,38.60
2022-11-06T11:13:33.701Z,36.10
2022-11-06T11:16:02.765Z,32.30
2022-11-06T11:18:30.120Z,28.00
2022-11-06T11:21:19.011Z,25.10
2022-11-06T11:24:04.512Z,22.60
2022-11-06T11:26:47.211Z,20.60
2022-11-06T11:29:27.226Z,18.80
2022-11-06T11:32:01.639Z,17.70
2022-11-06T11:34:31.880Z,16.90
2022-11-06T11:37:02.468Z,16.20
2022-11-06T11:39:40.607Z,15.60
2022-11-06T11:42:23.224Z,15.10
2022-11-06T11:45:08.745Z,14.50
2022-11-06T11:47:41.222Z,14.10
2022-11-06T11:50:30.282Z,13.80
2022-11-06T11:53:11.150Z,13.60
2022-11-06T11:55:43.478Z,13.50
2022-11-06T11:58:23.543Z,13.40
2022-11-06T12:00:54.728Z,13.30
2022-11-06T12:03:25.564Z,13.10
2022-11-06T12:06:03.245Z,13.00
2022-11-06T12:08:31.034Z,12.80
2022-11-06T12:11:04.676Z,12.70
2022-11-06T12:13:32.505Z,12.60
2022-11-06T12:16:04.617Z,12.60
2022-11-06T12:18:38.886Z,12.40
2022-11-06T12:21:22.674Z,12.40
2022-11-06T12:24:05.136Z,12.30
2022-11-06T12:27:03.038Z,12.30
2022-11-06T12:29:36.849Z,12.20
2022-11-06T12:32:26.960Z,12.10
2022-11-06T12:35:06.392Z,12.00
2022-11-06T12:37:52.616Z,11.90
2022-11-06T12:40:24.978Z,11.80
2022-11-06T12:43:16.207Z,11.70
2022-11-06T12:46:01.835Z,11.60
2022-11-06T12:48:38.307Z,11.60
2022-11-06T12:51:32.639Z,11.40
2022-11-06T12:54:09.100Z,11.30
2022-11-06T12:56:45.916Z,11.30
2022-11-06T12:59:49.037Z,11.20
2022-11-06T13:02:33.998Z,11.20
2022-11-06T13:05:23.725Z,11.10
2022-11-06T13:08:12.946Z,11.20
2022-11-06T13:10:44.069Z,11.20
2022-11-06T13:13:27.406Z,11.20
2022-11-06T13:16:13.404Z,11.20
2022-11-06T13:18:53.616Z,11.10
2022-11-06T13:21:45.909Z,11.10
2022-11-06T13:24:32.737Z,11.00
2022-11-06T13:27:11.536Z,10.90
2022-11-06T13:29:39.637Z,10.90
2022-11-06T13:32:16.567Z,10.90
2022-11-06T13:34:48.212Z,10.90
2022-11-06T13:37:39.721Z,10.90
2022-11-06T13:40:25.362Z,10.90
2022-11-06T13:43:03.196Z,10.80
2022-11-06T13:45:40.718Z,10.80
2022-11-06T13:48:23.455Z,10.80
2022-11-06T13:50:58.528Z,10.90
2022-11-06T13:53:38.281Z,10.90
2022-11-06T13:56:20.721Z,10.90
2022-11-06T13:59:10.315Z,10.90
2022-11-06T14:01:57.149Z,10.80
2022-11-06T14:04:53.918Z,10.80
2022-11-06T14:07:22.836Z,10.60
2022-11-06T14:09:50.440Z,10.60
2022-11-06T14:12:20.861Z,10.60
2022-11-06T14:14:48.989Z,10.50
2022-11-06T14:17:16.594Z,10.50
2022-11-06T14:19:51.055Z,10.50
2022-11-06T14:22:29.504Z,10.40
2022-11-06T14:25:01.268Z,10.30
2022-11-06T14:27:29.603Z,10.20
2022-11-06T14:30:38.399Z,10.20
2022-11-06T14:33:49.504Z,10.20
2022-11-06T14:36:27.159Z,10.00
2022-11-06T14:38:55.031Z,10.00
2022-11-06T14:41:34.637Z,9.90
2022-11-06T14:44:15.722Z,9.90
2022-11-06T14:46:51.071Z,9.80
2022-11-06T14:49:33.455Z,9.70
2022-11-06T14:52:05.768Z,9.70
2022-11-06T14:54:36.106Z,9.60
2022-11-06T14:57:04.093Z,9.50
2022-11-06T14:59:40.587Z,9.40
2022-11-06T15:02:08.216Z,9.30
2022-11-06T15:04:36.168Z,9.30
2022-11-06T15:07:58.389Z,9.20
2022-11-06T15:10:41.678Z,9.20
2022-11-06T15:13:18.659Z,9.20
2022-11-06T15:15:52.724Z,9.10
2022-11-06T15:18:22.033Z,9.00
2022-11-06T15:20:58.490Z,8.90
2022-11-06T15:23:47.781Z,8.80
2022-11-06T15:26:23.872Z,8.80
2022-11-06T15:29:17.093Z,8.60
2022-11-06T15:31:52.223Z,8.50
2022-11-06T15:34:26.249Z,8.50
2022-11-06T15:36:59.504Z,8.40
2022-11-06T15:39:30.094Z,8.30
2022-11-06T15:41:58.014Z,8.30
2022-11-06T15:44:25.574Z,8.30
2022-11-06T15:46:57.968Z,8.20
2022-11-06T15:49:25.987Z,8.20
2022-11-06T15:51:54.508Z,8.20
2022-11-06T15:54:36.027Z,8.10
2022-11-06T15:57:12.154Z,8.10
2022-11-06T15:59:41.462Z,8.10
2022-11-06T16:02:22.258Z,8.00
2022-11-06T16:04:51.536Z,8.00
2022-11-06T16:07:22.205Z,8.00
2022-11-06T16:09:52.627Z,7.90
2022-11-06T16:12:22.597Z,7.90
2022-11-06T16:14:52.166Z,7.80
2022-11-06T16:17:24.324Z,7.80
2022-11-06T16:19:54.746Z,7.80
2022-11-06T16:22:34.959Z,7.70
2022-11-06T16:25:05.714Z,7.70
2022-11-06T16:27:37.606Z,7.70
2022-11-06T16:30:05.602Z,7.70
2022-11-06T16:32:39.616Z,7.70
2022-11-06T16:35:27.075Z,7.70
2022-11-06T16:38:39.921Z,7.60
2022-11-06T16:41:04.796Z,7.60
2022-11-06T16:43:32.448Z,7.50
2022-11-06T16:46:06.982Z,7.50
2022-11-06T16:48:43.780Z,7.40
2022-11-06T16:51:30.503Z,7.40
2022-11-06T16:53:59.869Z,7.30
2022-11-06T16:56:33.003Z,7.20
2022-11-06T16:59:09.579Z,7.20
2022-11-06T17:01:45.916Z,7.10
2022-11-06T17:04:24.397Z,7.10
2022-11-06T17:06:52.959Z,7.00
2022-11-06T17:09:23.720Z,7.00
2022-11-06T17:11:58.669Z,7.10
2022-11-06T17:14:26.904Z,7.10
2022-11-06T17:16:59.565Z,7.10
2022-11-06T17:19:27.893Z,7.10
2022-11-06T17:21:55.482Z,7.10
2022-11-06T17:24:38.520Z,7.00
2022-11-06T17:27:08.224Z,7.10
2022-11-06T17:29:35.879Z,7.00
2022-11-06T17:32:03.017Z,7.00
2022-11-06T17:34:30.740Z,7.00
2022-11-06T17:36:57.818Z,7.00
2022-11-06T17:39:25.194Z,7.00
2022-11-06T17:41:54.857Z,7.00
2022-11-06T17:44:24.596Z,7.00
2022-11-06T17:46:51.740Z,7.00
2022-11-06T17:49:19.223Z,6.90
2022-11-06T17:51:49.343Z,7.00
2022-11-06T17:54:17.983Z,7.00
2022-11-06T17:56:45.460Z,6.90
2022-11-06T17:59:13.818Z,6.90
2022-11-06T18:01:41.639Z,6.90
2022-11-06T18:04:09.759Z,6.90
2022-11-06T18:06:39.366Z,6.80
2022-11-06T18:09:07.992Z,6.80
2022-11-06T18:11:35.299Z,6.80
2022-11-06T18:14:03.105Z,6.80
2022-11-06T18:16:34.080Z,6.80
2022-11-06T18:19:01.870Z,6.80
2022-11-06T18:21:29.043Z,6.80
2022-11-06T18:23:56.375Z,6.70
2022-11-06T18:26:23.741Z,6.70
2022-11-06T18:28:51.243Z,6.70
2022-11-06T18:31:19.304Z,6.70
2022-11-06T18:33:48.053Z,6.70
2022-11-06T18:36:15.927Z,6.70
2022-11-06T18:38:43.684Z,6.60
2022-11-06T18:41:13.999Z,6.60
2022-11-06T18:43:41.864Z,6.60
2022-11-06T18:46:13.279Z,6.50
2022-11-06T18:48:41.515Z,6.40
2022-11-06T18:51:35.462Z,6.40
2022-11-06T18:54:09.033Z,6.40
2022-11-06T18:56:36.431Z,6.40
2022-11-06T18:59:05.603Z,6.40
2022-11-06T19:01:35.545Z,6.40
2022-11-06T19:04:04.195Z,6.30
2022-11-06T19:06:31.609Z,6.30
2022-11-06T19:08:59.142Z,6.20
2022-11-06T19:11:26.385Z,6.30
2022-11-06T19:13:53.762Z,6.20
2022-11-06T19:16:25.124Z,6.10
2022-11-06T19:21:30.314Z,6.00
2022-11-06T19:24:03.398Z,5.90
2022-11-06T19:26:32.444Z,5.90
2022-11-06T19:29:03.551Z,5.80
2022-11-06T19:31:31.888Z,5.80
2022-11-06T19:34:00.397Z,5.70
2022-11-06T19:36:28.305Z,5.70
2022-11-06T19:38:56.447Z,5.60
2022-11-06T19:41:24.252Z,5.60
2022-11-06T19:43:51.665Z,5.60
2022-11-06T19:46:24.052Z,5.60
2022-11-06T19:48:54.982Z,5.60
2022-11-06T19:51:22.115Z,5.60
2022-11-06T19:53:52.865Z,5.50
2022-11-06T19:56:21.305Z,5.60
2022-11-06T19:58:48.780Z,5.70
2022-11-06T20:01:16.155Z,5.70
2022-11-06T20:03:44.019Z,5.90
2022-11-06T20:06:14.080Z,6.00
2022-11-06T20:08:42.003Z,6.10
2022-11-06T20:11:12.349Z,6.40
2022-11-06T20:13:41.048Z,6.60
2022-11-06T20:16:11.419Z,6.70
2022-11-06T20:18:39.058Z,6.90
2022-11-06T20:21:09.125Z,6.90
2022-11-06T20:23:39.097Z,7.00
2022-11-06T20:26:06.706Z,7.00
2022-11-06T20:28:34.495Z,7.00
2022-11-06T20:31:12.769Z,7.00
2022-11-06T20:33:40.920Z,7.10
2022-11-06T20:36:14.438Z,7.10
2022-11-06T20:38:42.149Z,7.00
2022-11-06T20:41:09.353Z,7.00
2022-11-06T20:43:36.685Z,6.90
2022-11-06T20:46:08.717Z,7.00
2022-11-06T20:48:36.178Z,7.00
2022-11-06T20:51:05.224Z,7.00
2022-11-06T20:53:33.700Z,7.00
2022-11-06T20:56:03.595Z,7.00
2022-11-06T20:58:31.823Z,7.00
2022-11-06T21:01:10.954Z,7.00
2022-11-06T21:03:40.198Z,7.10
2022-11-06T21:06:08.701Z,7.00
2022-11-06T21:08:37.698Z,7.00
2022-11-06T21:11:15.741Z,7.00
2022-11-06T21:13:44.402Z,7.00
2022-11-06T21:16:37.800Z,6.90
2022-11-06T21:19:06.447Z,7.00
2022-11-06T21:21:35.016Z,6.90
2022-11-06T21:24:03.066Z,6.90
2022-11-06T21:26:33.024Z,6.90
2022-11-06T21:29:03.034Z,6.90
2022-11-06T21:31:31.600Z,6.90
2022-11-06T21:34:00.921Z,6.80
2022-11-06T21:36:33.967Z,6.80
2022-11-06T21:39:23.602Z,6.80
2022-11-06T21:41:53.172Z,6.80
2022-11-06T21:44:20.654Z,6.80
2022-11-06T21:46:47.803Z,6.80
2022-11-06T21:49:17.722Z,6.80
2022-11-06T21:51:47.461Z,6.80
2022-11-06T21:54:14.866Z,6.80
2022-11-06T21:56:42.841Z,6.80
2022-11-06T21:59:12.402Z,6.80
2022-11-06T22:01:42.989Z,6.90
2022-11-06T22:04:10.690Z,6.90
2022-11-06T22:06:41.124Z,7.10
2022-11-06T22:09:09.154Z,7.40
2022-11-06T22:11:39.850Z,7.50
2022-11-06T22:14:11.611Z,7.40
2022-11-06T22:16:43.856Z,7.40
2022-11-06T22:19:11.677Z,7.30
2022-11-06T22:21:42.176Z,7.30
2022-11-06T22:24:13.048Z,7.20
2022-11-06T22:26:40.629Z,7.20
2022-11-06T22:29:10.990Z,7.10
2022-11-06T22:31:41.436Z,7.10
2022-11-06T22:34:10.798Z,7.10
2022-11-06T22:36:38.555Z,7.10
2022-11-06T22:39:09.492Z,7.10
2022-11-06T22:41:37.768Z,7.10
2022-11-06T22:44:06.053Z,7.10
2022-11-06T22:46:34.129Z,7.10
2022-11-06T22:49:04.197Z,7.10
2022-11-06T22:51:32.554Z,7.10
2022-11-06T22:54:01.093Z,7.10
2022-11-06T22:56:30.194Z,7.50
2022-11-06T22:59:00.107Z,7.20
2022-11-06T23:01:29.237Z,7.20
2022-11-06T23:04:00.723Z,7.20
2022-11-06T23:06:28.617Z,7.20
2022-11-06T23:08:55.722Z,7.20
2022-11-06T23:11:24.624Z,7.20
2022-11-06T23:13:55.495Z,7.20
2022-11-06T23:16:26.877Z,7.20
2022-11-06T23:18:54.449Z,7.20
2022-11-06T23:21:21.408Z,7.20
2022-11-06T23:23:48.858Z,7.20
2022-11-06T23:26:18.096Z,7.20
2022-11-06T23:28:45.933Z,7.30
2022-11-06T23:31:16.572Z,7.20
2022-11-06T23:33:44.149Z,7.20
2022-11-06T23:36:13.884Z,7.30
2022-11-06T23:38:41.494Z,7.30
2022-11-06T23:41:11.035Z,7.30
2022-11-06T23:43:38.380Z,7.20
2022-11-06T23:46:05.608Z,7.30
2022-11-06T23:48:33.080Z,7.30
2022-11-06T23:51:00.076Z,7.30
2022-11-06T23:53:27.541Z,7.20
2022-11-06T23:55:54.734Z,7.20
2022-11-06T23:58:22.146Z,7.30
